Time;durP1;ratioP1;P1;durP2;ratioP2;P2;SDS_P1;SDS_P2;PMS_P1;PMS_P2;Temp;Humidity;BMP_temperature;BMP_pressure;BME280_temperature;BME280_humidity;BME280_pressure;Samples;Min_cycle;Max_cycle;Signal;HPM_P1;HPM_P2
2023/07/03 00:00:20;;;;;;;14.38;9.75;;;;;;;;;;8255213;28;20055;-86
2023/07/03 00:04:45;;;;;;;16.58;9.50;;;;;;;;;;8244695;28;20055;-87
2023/07/03 00:08:48;;;;;;;16.20;9.75;;;;;;;;;;8251639;28;20118;-89
2023/07/03 00:12:51;;;;;;;20.42;10.63;;;;;;;;;;8255111;28;20109;-86
2023/07/03 00:16:55;;;;;;;17.25;10.35;;;;;;;;;;8263793;28;20065;-91
2023/07/03 00:20:59;;;;;;;17.02;10.50;;;;;;;;;;8235778;28;20097;-88
2023/07/03 00:25:02;;;;;;;16.13;9.65;;;;;;;;;;8254693;28;20077;-93
2023/07/03 00:29:05;;;;;;;17.38;10.38;;;;;;;;;;8250090;28;20129;-95
2023/07/03 00:33:08;;;;;;;16.40;9.63;;;;;;;;;;8264398;28;20129;-93
2023/07/03 00:37:14;;;;;;;15.80;9.82;;;;;;;;;;8260888;28;20487;-93
2023/07/03 00:41:17;;;;;;;16.67;9.95;;;;;;;;;;8247332;28;20081;-92
2023/07/03 00:45:20;;;;;;;19.77;9.75;;;;;;;;;;8251181;28;20569;-95
2023/07/03 00:49:23;;;;;;;19.98;10.25;;;;;;;;;;8269882;28;20112;-95
2023/07/03 00:53:27;;;;;;;18.98;9.98;;;;;;;;;;8269996;28;20137;-95
2023/07/03 00:57:30;;;;;;;19.40;10.93;;;;;;;;;;8257477;28;20482;-95
2023/07/03 01:01:43;;;;;;;19.05;10.15;;;;;;;;;;8256672;28;20494;-95
2023/07/03 01:05:51;;;;;;;18.90;10.15;;;;;;;;;;8269966;28;20581;-96
2023/07/03 01:09:57;;;;;;;16.50;9.18;;;;;;;;;;8253708;28;20141;-92
2023/07/03 01:14:02;;;;;;;13.52;8.57;;;;;;;;;;8260523;28;20060;-95
2023/07/03 01:18:07;;;;;;;16.67;9.55;;;;;;;;;;8256805;28;20054;-95
2023/07/03 01:22:16;;;;;;;21.52;10.52;;;;;;;;;;8257062;28;20421;-96
2023/07/03 01:26:22;;;;;;;19.88;10.38;;;;;;;;;;8258215;28;20165;-95
2023/07/03 01:30:26;;;;;;;17.40;9.82;;;;;;;;;;8268095;28;20058;-95
2023/07/03 01:34:29;;;;;;;18.48;10.68;;;;;;;;;;8268904;28;20058;-96
2023/07/03 01:38:33;;;;;;;22.02;10.52;;;;;;;;;;8263758;28;20137;-95
2023/07/03 01:42:41;;;;;;;21.35;11.40;;;;;;;;;;8265068;28;20069;-93
2023/07/03 01:46:43;;;;;;;18.92;10.98;;;;;;;;;;8261290;28;20051;-96
2023/07/03 01:50:48;;;;;;;19.10;10.88;;;;;;;;;;8239101;28;20522;-95
2023/07/03 01:55:00;;;;;;;19.52;10.38;;;;;;;;;;8269037;28;20509;-94
2023/07/03 01:59:09;;;;;;;20.42;10.48;;;;;;;;;;8267843;28;20060;-91
2023/07/03 02:03:21;;;;;;;19.55;10.02;;;;;;;;;;8268509;28;20054;-93
2023/07/03 02:07:28;;;;;;;19.25;10.23;;;;;;;;;;8255234;28;20108;-95
2023/07/03 02:11:31;;;;;;;16.52;9.60;;;;;;;;;;8252522;28;20054;-94
2023/07/03 02:15:36;;;;;;;18.85;10.27;;;;;;;;;;8258443;28;20093;-92
2023/07/03 02:19:39;;;;;;;16.42;9.55;;;;;;;;;;8261726;28;20399;-95
2023/07/03 02:23:42;;;;;;;19.60;10.07;;;;;;;;;;8267998;28;20054;-95
2023/07/03 02:27:45;;;;;;;17.88;10.25;;;;;;;;;;8254971;28;20059;-96
2023/07/03 02:31:49;;;;;;;21.65;10.60;;;;;;;;;;8254988;28;20141;-95
2023/07/03 02:35:52;;;;;;;20.58;9.48;;;;;;;;;;8255342;28;20055;-94
2023/07/03 02:39:55;;;;;;;17.50;9.52;;;;;;;;;;8267558;28;20137;-96
2023/07/03 02:43:58;;;;;;;18.10;10.80;;;;;;;;;;8254826;28;20138;-94
2023/07/03 02:48:03;;;;;;;17.38;9.65;;;;;;;;;;8262903;28;20078;-87
2023/07/03 02:52:07;;;;;;;20.45;10.30;;;;;;;;;;8252450;28;20093;-94
2023/07/03 02:56:10;;;;;;;17.15;10.82;;;;;;;;;;8256469;28;20060;-95
2023/07/03 03:00:14;;;;;;;19.88;11.18;;;;;;;;;;8265428;28;20045;-88
2023/07/03 03:04:18;;;;;;;16.83;9.68;;;;;;;;;;8265972;28;20145;-91
2023/07/03 03:08:22;;;;;;;18.45;10.05;;;;;;;;;;8265543;28;20078;-95
2023/07/03 03:12:24;;;;;;;16.60;9.98;;;;;;;;;;8262156;28;20483;-87
2023/07/03 03:16:27;;;;;;;15.10;8.93;;;;;;;;;;8267920;28;20054;-95
2023/07/03 03:20:32;;;;;;;16.80;9.73;;;;;;;;;;8271545;28;20057;-90
2023/07/03 03:24:35;;;;;;;17.30;9.38;;;;;;;;;;8266570;28;20578;-95
2023/07/03 03:28:38;;;;;;;13.40;9.02;;;;;;;;;;8271540;28;20077;-95
2023/07/03 03:32:42;;;;;;;16.73;9.80;;;;;;;;;;8271579;28;20060;-93
2023/07/03 03:36:46;;;;;;;15.40;9.80;;;;;;;;;;8271398;28;20109;-92
2023/07/03 03:40:55;;;;;;;12.55;8.48;;;;;;;;;;8271182;28;20055;-91
2023/07/03 03:44:58;;;;;;;16.63;11.00;;;;;;;;;;8270923;28;20059;-93
2023/07/03 03:49:01;;;;;;;17.00;10.18;;;;;;;;;;8270832;28;20100;-94
2023/07/03 03:53:06;;;;;;;12.27;8.95;;;;;;;;;;8258007;28;20133;-94
2023/07/03 03:57:10;;;;;;;15.30;10.52;;;;;;;;;;8253073;28;20141;-90
2023/07/03 04:01:13;;;;;;;20.00;12.13;;;;;;;;;;8259069;28;20077;-93
2023/07/03 04:05:15;;;;;;;17.15;12.23;;;;;;;;;;8263233;28;20133;-93
2023/07/03 04:09:20;;;;;;;14.30;10.65;;;;;;;;;;8270564;28;20133;-93
2023/07/03 04:13:23;;;;;;;13.10;9.15;;;;;;;;;;8259376;28;20072;-87
2023/07/03 04:17:26;;;;;;;19.00;11.80;;;;;;;;;;8266020;28;20529;-89
2023/07/03 04:21:28;;;;;;;12.35;9.05;;;;;;;;;;8262763;28;20050;-91
2023/07/03 04:25:33;;;;;;;30.50;20.55;;;;;;;;;;8266690;28;20065;-88
2023/07/03 04:29:36;;;;;;;24.08;17.58;;;;;;;;;;8261810;28;20129;-94
2023/07/03 04:33:39;;;;;;;18.17;12.85;;;;;;;;;;8269940;28;20421;-94
2023/07/03 04:37:42;;;;;;;11.93;9.27;;;;;;;;;;8255797;28;20086;-93
2023/07/03 04:41:46;;;;;;;11.38;7.53;;;;;;;;;;8268895;28;20054;-95
2023/07/03 04:45:51;;;;;;;15.65;8.80;;;;;;;;;;8260309;28;20055;-89
2023/07/03 04:49:55;;;;;;;8.02;5.10;;;;;;;;;;8265157;28;20498;-89
2023/07/03 04:53:59;;;;;;;9.75;4.93;;;;;;;;;;8268726;28;20050;-93
2023/07/03 04:58:04;;;;;;;10.80;6.07;;;;;;;;;;8268693;28;20101;-94
2023/07/03 05:02:07;;;;;;;11.70;5.88;;;;;;;;;;8268833;28;20058;-94
2023/07/03 05:06:11;;;;;;;10.05;5.38;;;;;;;;;;8265991;28;20054;-93
2023/07/03 05:10:16;;;;;;;9.75;5.40;;;;;;;;;;8258431;28;20133;-94
2023/07/03 05:14:21;;;;;;;10.52;5.80;;;;;;;;;;8268460;28;20054;-94
2023/07/03 05:18:24;;;;;;;9.55;5.32;;;;;;;;;;8268180;28;20062;-92
2023/07/03 05:22:26;;;;;;;8.95;5.15;;;;;;;;;;8267462;28;20085;-92
2023/07/03 05:26:29;;;;;;;9.75;5.65;;;;;;;;;;8267065;28;20057;-95
2023/07/03 05:30:34;;;;;;;7.32;4.97;;;;;;;;;;8267762;28;20134;-90
2023/07/03 05:34:38;;;;;;;9.50;4.85;;;;;;;;;;8254616;28;20064;-93
2023/07/03 05:38:41;;;;;;;8.77;4.88;;;;;;;;;;8267178;28;20061;-94
2023/07/03 05:42:44;;;;;;;7.82;5.05;;;;;;;;;;8267086;28;20141;-89
2023/07/03 05:46:48;;;;;;;8.45;4.88;;;;;;;;;;8267130;28;20100;-94
2023/07/03 05:50:51;;;;;;;9.30;4.88;;;;;;;;;;8254261;28;20077;-94
2023/07/03 05:54:54;;;;;;;10.07;5.10;;;;;;;;;;8253419;28;20108;-94
2023/07/03 05:58:57;;;;;;;8.07;4.95;;;;;;;;;;8266928;28;20141;-95
2023/07/03 06:03:02;;;;;;;9.70;5.75;;;;;;;;;;8253638;28;20074;-87
2023/07/03 06:07:08;;;;;;;10.15;4.90;;;;;;;;;;8266213;28;20058;-94
2023/07/03 06:11:13;;;;;;;9.98;5.28;;;;;;;;;;8260824;28;20096;-93
2023/07/03 06:15:16;;;;;;;11.10;5.70;;;;;;;;;;8255661;28;20497;-93
2023/07/03 06:19:21;;;;;;;18.05;5.72;;;;;;;;;;8253003;28;20059;-91
2023/07/03 06:23:24;;;;;;;12.07;5.40;;;;;;;;;;8266580;28;20058;-90
2023/07/03 06:27:28;;;;;;;11.18;5.45;;;;;;;;;;8265886;28;20169;-93
2023/07/03 06:31:31;;;;;;;10.38;5.65;;;;;;;;;;8256612;28;20069;-92
2023/07/03 06:35:35;;;;;;;12.75;5.65;;;;;;;;;;8249671;28;20124;-91
2023/07/03 06:39:39;;;;;;;10.68;5.45;;;;;;;;;;8265718;28;20046;-92
2023/07/03 06:43:42;;;;;;;9.60;5.90;;;;;;;;;;8266583;28;20109;-92
2023/07/03 06:47:45;;;;;;;13.45;5.53;;;;;;;;;;8259833;28;20474;-92
2023/07/03 06:51:49;;;;;;;11.25;5.47;;;;;;;;;;8259367;28;20059;-92
2023/07/03 06:55:57;;;;;;;12.45;6.30;;;;;;;;;;8272651;28;20462;-92
2023/07/03 07:00:00;;;;;;;11.05;5.97;;;;;;;;;;8270263;28;20112;-92
2023/07/03 07:04:04;;;;;;;11.13;5.40;;;;;;;;;;8261093;28;20050;-91
2023/07/03 07:08:08;;;;;;;11.30;5.78;;;;;;;;;;8269319;28;20535;-88
2023/07/03 07:12:11;;;;;;;13.90;6.75;;;;;;;;;;8272192;28;20114;-93
2023/07/03 07:16:15;;;;;;;11.05;5.90;;;;;;;;;;8258779;28;20116;-93
2023/07/03 07:20:18;;;;;;;13.82;6.30;;;;;;;;;;8271761;28;20137;-92
2023/07/03 07:24:24;;;;;;;13.40;6.45;;;;;;;;;;8271574;28;20058;-91
2023/07/03 07:28:27;;;;;;;15.77;6.40;;;;;;;;;;8271841;28;20185;-92
2023/07/03 07:32:30;;;;;;;11.93;6.25;;;;;;;;;;8270986;28;20492;-93
2023/07/03 07:36:33;;;;;;;10.88;6.55;;;;;;;;;;8271397;28;20050;-91
2023/07/03 07:40:38;;;;;;;13.85;5.78;;;;;;;;;;8258133;28;20066;-93
2023/07/03 07:44:40;;;;;;;12.75;7.00;;;;;;;;;;8258134;28;20061;-89
2023/07/03 07:48:45;;;;;;;10.82;6.40;;;;;;;;;;8269143;28;20153;-92
2023/07/03 07:52:48;;;;;;;10.63;6.10;;;;;;;;;;8261098;28;20617;-93
2023/07/03 07:56:52;;;;;;;14.02;6.18;;;;;;;;;;8256585;28;20046;-90
2023/07/03 08:00:57;;;;;;;11.10;6.25;;;;;;;;;;8264980;28;20109;-91
2023/07/03 08:05:00;;;;;;;11.60;6.10;;;;;;;;;;8270441;28;20055;-93
2023/07/03 08:09:04;;;;;;;11.88;6.05;;;;;;;;;;8270317;28;20062;-92
2023/07/03 08:13:08;;;;;;;10.55;5.13;;;;;;;;;;8270633;28;20054;-92
2023/07/03 08:17:11;;;;;;;9.35;5.80;;;;;;;;;;8270253;28;20138;-93
2023/07/03 08:21:14;;;;;;;11.43;5.90;;;;;;;;;;8270139;28;20057;-94
2023/07/03 08:25:17;;;;;;;12.40;5.38;;;;;;;;;;8269721;28;20553;-93
2023/07/03 08:29:21;;;;;;;10.10;5.25;;;;;;;;;;8245029;28;20167;-94
2023/07/03 08:33:25;;;;;;;12.85;4.97;;;;;;;;;;8270061;28;20081;-90
2023/07/03 08:37:28;;;;;;;14.73;5.70;;;;;;;;;;8269248;28;20050;-94
2023/07/03 08:41:32;;;;;;;9.88;5.80;;;;;;;;;;8268718;28;20137;-93
2023/07/03 08:45:38;;;;;;;12.27;6.05;;;;;;;;;;8265696;28;20999;-91
2023/07/03 08:49:43;;;;;;;9.50;5.60;;;;;;;;;;8267001;28;20461;-90
2023/07/03 08:53:51;;;;;;;11.13;6.10;;;;;;;;;;8266871;28;20046;-94
2023/07/03 08:57:54;;;;;;;14.77;5.55;;;;;;;;;;8247831;28;20058;-93
2023/07/03 09:02:06;;;;;;;11.90;6.18;;;;;;;;;;8266018;28;20418;-94
2023/07/03 09:06:19;;;;;;;14.77;5.63;;;;;;;;;;8266310;28;20060;-92
2023/07/03 09:10:27;;;;;;;8.88;5.68;;;;;;;;;;8267018;28;20184;-91
2023/07/03 09:14:36;;;;;;;9.25;5.30;;;;;;;;;;8253042;28;20090;-84
2023/07/03 09:18:46;;;;;;;10.18;5.35;;;;;;;;;;8263972;28;20061;-86
2023/07/03 09:22:54;;;;;;;9.02;5.32;;;;;;;;;;8267967;28;20066;-88
2023/07/03 09:27:09;;;;;;;9.32;5.28;;;;;;;;;;8262384;28;20544;-81
2023/07/03 09:31:12;;;;;;;10.15;5.78;;;;;;;;;;8260493;28;20065;-95
2023/07/03 09:35:19;;;;;;;12.23;5.85;;;;;;;;;;8265142;28;20144;-89
2023/07/03 09:39:24;;;;;;;10.77;5.25;;;;;;;;;;8262854;28;20503;-91
2023/07/03 09:43:31;;;;;;;11.57;5.43;;;;;;;;;;8252235;28;20496;-88
2023/07/03 09:47:36;;;;;;;11.32;5.68;;;;;;;;;;8246755;28;20128;-82
2023/07/03 09:51:41;;;;;;;10.10;5.25;;;;;;;;;;8264019;28;20063;-90
2023/07/03 09:55:44;;;;;;;14.52;5.97;;;;;;;;;;8262835;28;20137;-89
2023/07/03 09:59:47;;;;;;;8.20;5.45;;;;;;;;;;8255141;28;20137;-86
2023/07/03 10:04:02;;;;;;;9.38;5.68;;;;;;;;;;8257200;28;20486;-94
2023/07/03 10:08:09;;;;;;;9.63;4.85;;;;;;;;;;8264696;28;20130;-87
2023/07/03 10:12:21;;;;;;;10.13;5.90;;;;;;;;;;8257027;28;20050;-93
2023/07/03 10:16:25;;;;;;;10.35;5.65;;;;;;;;;;8256998;28;20509;-94
2023/07/03 10:20:33;;;;;;;10.45;5.90;;;;;;;;;;8260271;28;20054;-90
2023/07/03 10:24:39;;;;;;;10.60;5.13;;;;;;;;;;8257081;28;20144;-92
2023/07/03 10:28:46;;;;;;;13.25;5.53;;;;;;;;;;8263653;28;20082;-91
2023/07/03 10:32:52;;;;;;;10.57;5.20;;;;;;;;;;8262021;28;20070;-91
2023/07/03 10:37:01;;;;;;;8.38;5.20;;;;;;;;;;8260563;28;20050;-91
2023/07/03 10:41:13;;;;;;;9.05;5.38;;;;;;;;;;8249799;28;20055;-96
2023/07/03 10:45:17;;;;;;;9.90;4.80;;;;;;;;;;8243699;28;20498;-92
2023/07/03 10:49:27;;;;;;;8.48;5.50;;;;;;;;;;8264316;28;20411;-92
2023/07/03 10:53:40;;;;;;;8.75;5.18;;;;;;;;;;8240044;28;20474;-90
2023/07/03 10:57:57;;;;;;;9.57;4.93;;;;;;;;;;8254864;28;20141;-86
2023/07/03 11:02:15;;;;;;;10.43;4.95;;;;;;;;;;8254698;28;20065;-93
2023/07/03 11:06:22;;;;;;;10.30;5.55;;;;;;;;;;8251063;28;20721;-90
2023/07/03 11:10:34;;;;;;;10.15;5.35;;;;;;;;;;8240698;28;20059;-94
2023/07/03 11:14:54;;;;;;;9.48;5.30;;;;;;;;;;8257548;28;20051;-91
2023/07/03 11:19:12;;;;;;;9.83;5.10;;;;;;;;;;8253504;28;20054;-94
2023/07/03 11:23:21;;;;;;;8.90;5.25;;;;;;;;;;8260441;28;20103;-93
2023/07/03 11:27:30;;;;;;;8.23;5.60;;;;;;;;;;8263243;28;20060;-93
2023/07/03 11:31:36;;;;;;;8.53;5.60;;;;;;;;;;8266894;28;20483;-92
2023/07/03 11:35:55;;;;;;;11.52;5.90;;;;;;;;;;8269879;28;20074;-92
2023/07/03 11:40:16;;;;;;;9.07;5.03;;;;;;;;;;8268799;28;20054;-92
2023/07/03 11:44:21;;;;;;;7.78;5.32;;;;;;;;;;8263018;28;20090;-94
2023/07/03 11:48:30;;;;;;;10.20;5.43;;;;;;;;;;8262154;28;20517;-94
2023/07/03 11:52:35;;;;;;;8.48;5.28;;;;;;;;;;8255836;28;20054;-93
2023/07/03 11:57:04;;;;;;;11.70;5.55;;;;;;;;;;8268731;28;20081;-92
2023/07/03 12:01:25;;;;;;;8.70;4.55;;;;;;;;;;8264034;28;20521;-95
2023/07/03 12:05:56;;;;;;;9.88;4.90;;;;;;;;;;8266104;28;20055;-93
2023/07/03 12:10:13;;;;;;;;;;;;;;;;;;8260936;28;20526;-93
2023/07/03 12:14:53;;;;;;;9.00;5.30;;;;;;;;;;8262977;28;20043;-94
2023/07/03 12:19:02;;;;;;;8.93;5.60;;;;;;;;;;8261560;28;20434;-94
2023/07/03 12:23:07;;;;;;;9.80;6.10;;;;;;;;;;8254761;28;20499;-93
2023/07/03 12:27:11;;;;;;;10.20;5.97;;;;;;;;;;8256845;28;20478;-93
2023/07/03 12:31:16;;;;;;;14.35;6.20;;;;;;;;;;8256611;28;20082;-93
2023/07/03 12:35:23;;;;;;;11.13;5.97;;;;;;;;;;8256357;28;20081;-93
2023/07/03 12:39:28;;;;;;;11.98;6.40;;;;;;;;;;8254891;28;20057;-93
2023/07/03 12:43:32;;;;;;;12.43;6.05;;;;;;;;;;8275029;28;20074;-96
2023/07/03 12:47:35;;;;;;;11.30;6.15;;;;;;;;;;8262716;28;20105;-94
2023/07/03 12:51:43;;;;;;;12.50;6.40;;;;;;;;;;8270236;28;20062;-95
2023/07/03 12:55:51;;;;;;;12.38;6.13;;;;;;;;;;8259759;28;20078;-96
2023/07/03 12:59:55;;;;;;;10.25;5.72;;;;;;;;;;8273563;28;20609;-96
2023/07/03 13:03:58;;;;;;;13.90;6.18;;;;;;;;;;8270286;28;20066;-93
2023/07/03 13:08:06;;;;;;;9.98;5.90;;;;;;;;;;8270372;28;20137;-93
2023/07/03 13:12:19;;;;;;;13.45;5.72;;;;;;;;;;8254621;28;20050;-95
2023/07/03 13:16:22;;;;;;;9.88;5.80;;;;;;;;;;8260369;28;20047;-95
2023/07/03 13:20:28;;;;;;;9.90;5.70;;;;;;;;;;8267829;28;20132;-96
2023/07/03 13:24:31;;;;;;;10.50;5.90;;;;;;;;;;8267558;28;20050;-93
2023/07/03 13:28:38;;;;;;;12.07;6.65;;;;;;;;;;8271904;28;20097;-94
2023/07/03 13:32:53;;;;;;;13.10;6.10;;;;;;;;;;8264339;28;20142;-94
2023/07/03 13:37:06;;;;;;;11.98;5.72;;;;;;;;;;8247229;28;20078;-95
2023/07/03 13:41:09;;;;;;;12.80;6.35;;;;;;;;;;8242055;28;20062;-87
2023/07/03 13:45:14;;;;;;;13.35;7.95;;;;;;;;;;8248419;28;20074;-94
2023/07/03 13:49:18;;;;;;;15.10;8.30;;;;;;;;;;8234487;28;20051;-89
2023/07/03 13:53:21;;;;;;;13.18;6.40;;;;;;;;;;8259442;28;20054;-93
2023/07/03 13:57:24;;;;;;;14.93;9.48;;;;;;;;;;8265931;28;20177;-94
2023/07/03 14:01:29;;;;;;;11.60;6.18;;;;;;;;;;8253485;28;20057;-94
2023/07/03 14:05:32;;;;;;;11.23;5.43;;;;;;;;;;8266670;28;20038;-95
2023/07/03 14:09:35;;;;;;;13.02;7.30;;;;;;;;;;8266776;28;20055;-88
2023/07/03 14:13:38;;;;;;;10.90;6.47;;;;;;;;;;8266472;28;20112;-94
2023/07/03 14:17:43;;;;;;;13.93;6.05;;;;;;;;;;8266227;28;20066;-87
2023/07/03 14:21:46;;;;;;;15.55;8.20;;;;;;;;;;8265732;28;20141;-92
2023/07/03 14:25:49;;;;;;;12.00;6.50;;;;;;;;;;8265630;28;20054;-89
2023/07/03 14:29:52;;;;;;;15.52;8.73;;;;;;;;;;8264297;28;20141;-91
2023/07/03 14:33:56;;;;;;;12.77;6.50;;;;;;;;;;8265468;28;20060;-91
2023/07/03 14:37:59;;;;;;;11.25;6.05;;;;;;;;;;8248472;28;20062;-88
2023/07/03 14:42:02;;;;;;;11.63;6.70;;;;;;;;;;8265522;28;20137;-93
2023/07/03 14:46:06;;;;;;;11.80;7.03;;;;;;;;;;8265151;28;20054;-93
2023/07/03 14:50:12;;;;;;;14.35;6.65;;;;;;;;;;8265641;28;20061;-86
2023/07/03 14:54:15;;;;;;;15.07;6.80;;;;;;;;;;8253302;28;20129;-93
2023/07/03 14:58:18;;;;;;;13.25;6.78;;;;;;;;;;8264906;28;20055;-91
2023/07/03 15:02:21;;;;;;;14.00;7.43;;;;;;;;;;8251707;28;20410;-85
2023/07/03 15:06:26;;;;;;;16.00;6.43;;;;;;;;;;8247525;28;20042;-93
2023/07/03 15:10:29;;;;;;;13.63;6.95;;;;;;;;;;8266719;28;20422;-89
2023/07/03 15:14:32;;;;;;;11.50;6.68;;;;;;;;;;8267787;28;20050;-92
2023/07/03 15:18:35;;;;;;;17.80;7.15;;;;;;;;;;8262346;28;20204;-89
2023/07/03 15:22:39;;;;;;;9.73;6.72;;;;;;;;;;8257487;28;20165;-91
2023/07/03 15:26:43;;;;;;;13.27;6.82;;;;;;;;;;8259497;28;20170;-89
2023/07/03 15:30:47;;;;;;;22.88;7.03;;;;;;;;;;8254836;28;20066;-93
2023/07/03 15:34:52;;;;;;;13.80;7.50;;;;;;;;;;8267924;28;20057;-93
2023/07/03 15:38:58;;;;;;;13.23;7.45;;;;;;;;;;8251962;28;20383;-95
2023/07/03 15:43:01;;;;;;;13.60;6.85;;;;;;;;;;8282131;28;20059;-93
2023/07/03 15:47:07;;;;;;;13.40;6.68;;;;;;;;;;8257544;28;20058;-88
2023/07/03 15:51:11;;;;;;;15.68;7.45;;;;;;;;;;8253141;28;20057;-94
2023/07/03 15:55:18;;;;;;;12.20;7.20;;;;;;;;;;8265360;28;20057;-93
2023/07/03 15:59:21;;;;;;;13.57;7.55;;;;;;;;;;8262427;28;20050;-93
2023/07/03 16:03:24;;;;;;;19.20;7.78;;;;;;;;;;8272014;28;20061;-94
2023/07/03 16:07:26;;;;;;;15.35;7.13;;;;;;;;;;8269585;28;20496;-90
2023/07/03 16:11:34;;;;;;;14.40;8.02;;;;;;;;;;8267903;28;20081;-93
2023/07/03 16:15:37;;;;;;;12.98;7.70;;;;;;;;;;8269227;28;20062;-94
2023/07/03 16:19:40;;;;;;;13.32;7.60;;;;;;;;;;8236162;28;20066;-92
2023/07/03 16:23:44;;;;;;;16.67;7.57;;;;;;;;;;8263246;28;20057;-85
2023/07/03 16:27:49;;;;;;;14.05;7.90;;;;;;;;;;8268485;28;20058;-91
2023/07/03 16:31:52;;;;;;;14.68;7.68;;;;;;;;;;8255376;28;20134;-87
2023/07/03 16:35:56;;;;;;;14.57;8.00;;;;;;;;;;8269967;28;20410;-92
2023/07/03 16:39:59;;;;;;;15.82;7.88;;;;;;;;;;8268266;28;20466;-89
2023/07/03 16:44:04;;;;;;;16.63;10.25;;;;;;;;;;8268584;28;20406;-90
2023/07/03 16:48:07;;;;;;;17.00;8.57;;;;;;;;;;8249077;28;20141;-85
2023/07/03 16:52:10;;;;;;;14.75;8.55;;;;;;;;;;8247248;28;20113;-88
2023/07/03 16:56:15;;;;;;;18.35;8.13;;;;;;;;;;8244473;28;20070;-87
2023/07/03 17:00:21;;;;;;;15.63;8.43;;;;;;;;;;8243661;28;20140;-90
2023/07/03 17:04:24;;;;;;;19.83;10.40;;;;;;;;;;8253495;28;20125;-90
2023/07/03 17:08:31;;;;;;;18.20;8.20;;;;;;;;;;8259973;28;20050;-83
2023/07/03 17:12:34;;;;;;;16.38;8.80;;;;;;;;;;8255523;28;20462;-88
2023/07/03 17:16:39;;;;;;;16.27;7.22;;;;;;;;;;8253415;28;20086;-88
2023/07/03 17:20:46;;;;;;;18.85;9.05;;;;;;;;;;8256726;28;20058;-90
2023/07/03 17:24:49;;;;;;;16.73;7.85;;;;;;;;;;8247162;28;20807;-91
2023/07/03 17:28:52;;;;;;;17.85;7.32;;;;;;;;;;8253712;28;20133;-84
2023/07/03 17:32:57;;;;;;;17.10;7.65;;;;;;;;;;8250147;28;20062;-84
2023/07/03 17:37:01;;;;;;;14.30;7.50;;;;;;;;;;8263861;28;20084;-90
2023/07/03 17:41:06;;;;;;;11.57;6.22;;;;;;;;;;8243013;28;20137;-83
2023/07/03 17:45:12;;;;;;;21.80;6.95;;;;;;;;;;8248274;28;20562;-82
2023/07/03 17:49:17;;;;;;;13.82;6.40;;;;;;;;;;8243216;28;20058;-89
2023/07/03 17:53:23;;;;;;;13.32;6.53;;;;;;;;;;8255898;28;20050;-89
2023/07/03 17:57:27;;;;;;;14.70;6.97;;;;;;;;;;8256565;28;20218;-87
2023/07/03 18:01:31;;;;;;;15.15;6.57;;;;;;;;;;8255942;28;20057;-81
2023/07/03 18:05:37;;;;;;;19.65;7.13;;;;;;;;;;8259135;28;20586;-82
2023/07/03 18:09:42;;;;;;;10.38;5.80;;;;;;;;;;8241928;28;20068;-81
2023/07/03 18:13:47;;;;;;;18.95;6.32;;;;;;;;;;8255896;28;20078;-83
2023/07/03 18:17:51;;;;;;;14.88;7.25;;;;;;;;;;8249580;28;20062;-82
2023/07/03 18:21:56;;;;;;;14.98;6.30;;;;;;;;;;8237188;28;20121;-87
2023/07/03 18:26:00;;;;;;;17.60;6.45;;;;;;;;;;8248467;28;20141;-82
2023/07/03 18:30:06;;;;;;;15.05;6.97;;;;;;;;;;8254001;28;20113;-85
2023/07/03 18:34:11;;;;;;;15.85;7.32;;;;;;;;;;8248754;28;20059;-82
2023/07/03 18:38:17;;;;;;;13.25;6.80;;;;;;;;;;8247998;28;20055;-84
2023/07/03 18:42:20;;;;;;;16.77;6.50;;;;;;;;;;8248405;28;20055;-91
2023/07/03 18:46:25;;;;;;;17.38;7.40;;;;;;;;;;8248618;28;20074;-89
2023/07/03 18:50:30;;;;;;;17.70;7.70;;;;;;;;;;8255571;28;20050;-86
2023/07/03 18:54:35;;;;;;;14.88;7.00;;;;;;;;;;8251414;28;20189;-86
2023/07/03 18:58:40;;;;;;;15.48;7.43;;;;;;;;;;8258312;28;20662;-87
2023/07/03 19:02:44;;;;;;;14.00;6.82;;;;;;;;;;8258451;28;20059;-86
2023/07/03 19:06:49;;;;;;;17.10;6.80;;;;;;;;;;8264797;28;20057;-91
2023/07/03 19:10:55;;;;;;;16.05;7.10;;;;;;;;;;8265940;28;20062;-91
2023/07/03 19:15:01;;;;;;;15.93;6.95;;;;;;;;;;8255215;28;20133;-90
2023/07/03 19:19:07;;;;;;;21.38;8.38;;;;;;;;;;8253787;28;20102;-90
2023/07/03 19:23:11;;;;;;;18.30;7.88;;;;;;;;;;8234004;28;20141;-90
2023/07/03 19:27:18;;;;;;;16.63;7.35;;;;;;;;;;8258233;28;20089;-91
2023/07/03 19:31:21;;;;;;;16.15;6.95;;;;;;;;;;8267015;28;20141;-90
2023/07/03 19:35:25;;;;;;;14.75;6.97;;;;;;;;;;8253813;28;20050;-86
2023/07/03 19:39:30;;;;;;;17.63;7.05;;;;;;;;;;8270200;28;20055;-83
2023/07/03 19:43:37;;;;;;;16.73;8.68;;;;;;;;;;8270039;28;20113;-89
2023/07/03 19:47:47;;;;;;;20.13;8.60;;;;;;;;;;8258010;28;20058;-88
2023/07/03 19:52:01;;;;;;;14.48;7.70;;;;;;;;;;8270144;28;20050;-89
2023/07/03 19:56:05;;;;;;;17.50;8.68;;;;;;;;;;8269978;28;20058;-91
2023/07/03 20:00:11;;;;;;;16.17;8.05;;;;;;;;;;8269366;28;20054;-83
2023/07/03 20:04:15;;;;;;;20.10;8.02;;;;;;;;;;8268829;28;20055;-91
2023/07/03 20:08:20;;;;;;;23.02;8.52;;;;;;;;;;8260691;28;20133;-90
2023/07/03 20:12:28;;;;;;;18.00;8.65;;;;;;;;;;8256536;28;20141;-90
2023/07/03 20:16:35;;;;;;;18.80;8.82;;;;;;;;;;8269118;28;20061;-91
2023/07/03 20:20:40;;;;;;;17.60;8.20;;;;;;;;;;8268762;28;20054;-89
2023/07/03 20:24:45;;;;;;;17.70;9.02;;;;;;;;;;8269418;28;20054;-88
2023/07/03 20:28:48;;;;;;;20.23;9.57;;;;;;;;;;8255583;28;20564;-91
2023/07/03 20:32:54;;;;;;;19.05;9.00;;;;;;;;;;8255807;28;20058;-91
2023/07/03 20:36:59;;;;;;;18.05;8.55;;;;;;;;;;8256314;28;20110;-91
2023/07/03 20:41:06;;;;;;;19.05;9.52;;;;;;;;;;8256397;28;20078;-91
2023/07/03 20:45:11;;;;;;;26.02;9.13;;;;;;;;;;8268619;28;20054;-91
2023/07/03 20:49:16;;;;;;;18.05;8.75;;;;;;;;;;8255562;28;20054;-91
2023/07/03 20:53:28;;;;;;;20.17;8.68;;;;;;;;;;8255347;28;20418;-91
2023/07/03 20:57:35;;;;;;;;;;;;;;;;;;8257313;28;20073;-91
2023/07/03 21:01:39;;;;;;;22.23;8.45;;;;;;;;;;8268184;28;20333;-91
2023/07/03 21:05:43;;;;;;;16.67;8.88;;;;;;;;;;8267263;28;20066;-91
2023/07/03 21:09:46;;;;;;;20.83;10.45;;;;;;;;;;8267910;28;20475;-90
2023/07/03 21:13:51;;;;;;;17.83;9.27;;;;;;;;;;8267722;28;20077;-92
2023/07/03 21:17:59;;;;;;;19.00;9.25;;;;;;;;;;8265398;28;20062;-91
2023/07/03 21:22:04;;;;;;;21.52;9.35;;;;;;;;;;8257823;28;20105;-88
2023/07/03 21:26:07;;;;;;;20.88;10.25;;;;;;;;;;8267341;28;20157;-90
2023/07/03 21:30:12;;;;;;;20.33;9.93;;;;;;;;;;8266864;28;20174;-89
2023/07/03 21:34:14;;;;;;;18.80;10.05;;;;;;;;;;8267445;28;20478;-90
2023/07/03 21:38:20;;;;;;;24.00;10.45;;;;;;;;;;8267130;28;20085;-91
2023/07/03 21:42:23;;;;;;;23.38;11.80;;;;;;;;;;8267416;28;20137;-91
2023/07/03 21:46:28;;;;;;;23.58;10.90;;;;;;;;;;8266549;28;20141;-91
2023/07/03 21:50:31;;;;;;;18.02;10.10;;;;;;;;;;8265549;28;20058;-91
2023/07/03 21:54:36;;;;;;;20.45;10.43;;;;;;;;;;8263515;28;20073;-91
2023/07/03 21:58:40;;;;;;;22.98;9.73;;;;;;;;;;8266405;28;20100;-91
2023/07/03 22:02:43;;;;;;;21.40;10.63;;;;;;;;;;8266379;28;20092;-91
2023/07/03 22:06:45;;;;;;;22.00;9.88;;;;;;;;;;8265826;28;20054;-91
2023/07/03 22:10:51;;;;;;;22.65;10.50;;;;;;;;;;8259740;28;20463;-91
2023/07/03 22:14:53;;;;;;;24.10;10.02;;;;;;;;;;8252700;28;20506;-89
2023/07/03 22:18:56;;;;;;;21.50;10.00;;;;;;;;;;8246260;28;20055;-89
2023/07/03 22:23:00;;;;;;;22.65;10.15;;;;;;;;;;8239230;28;20801;-91
2023/07/03 22:27:05;;;;;;;19.25;8.85;;;;;;;;;;8249297;28;20065;-89
2023/07/03 22:31:10;;;;;;;24.20;9.60;;;;;;;;;;8247908;28;20569;-91
2023/07/03 22:35:13;;;;;;;19.70;9.40;;;;;;;;;;8255905;28;20177;-92
2023/07/03 22:39:16;;;;;;;19.75;9.68;;;;;;;;;;8253635;28;20419;-90
2023/07/03 22:43:21;;;;;;;20.60;9.75;;;;;;;;;;8264379;28;20130;-91
2023/07/03 22:47:24;;;;;;;20.25;10.18;;;;;;;;;;8255206;28;20055;-90
2023/07/03 22:51:27;;;;;;;23.45;10.13;;;;;;;;;;8265701;28;20129;-92
2023/07/03 22:55:30;;;;;;;19.42;10.32;;;;;;;;;;8265710;28;20124;-91
2023/07/03 22:59:34;;;;;;;21.45;10.43;;;;;;;;;;8266426;28;20505;-91
2023/07/03 23:03:39;;;;;;;19.52;9.88;;;;;;;;;;8264538;28;20556;-91
2023/07/03 23:07:42;;;;;;;20.75;10.20;;;;;;;;;;8253057;28;20137;-91
2023/07/03 23:11:46;;;;;;;28.73;10.35;;;;;;;;;;8261188;28;20059;-92
2023/07/03 23:15:58;;;;;;;19.42;10.15;;;;;;;;;;8256406;28;20062;-91
2023/07/03 23:20:10;;;;;;;21.75;10.20;;;;;;;;;;8253929;28;20454;-91
2023/07/03 23:24:13;;;;;;;25.02;10.57;;;;;;;;;;8245821;28;20082;-91
2023/07/03 23:28:16;;;;;;;18.67;10.20;;;;;;;;;;8243108;28;20064;-91
2023/07/03 23:32:20;;;;;;;20.50;10.00;;;;;;;;;;8269434;28;20058;-90
2023/07/03 23:36:23;;;;;;;21.40;9.77;;;;;;;;;;8271614;28;20054;-91
2023/07/03 23:40:27;;;;;;;21.23;9.85;;;;;;;;;;8257745;28;20054;-91
2023/07/03 23:44:29;;;;;;;16.85;9.32;;;;;;;;;;8246534;28;20085;-91
2023/07/03 23:48:34;;;;;;;24.75;10.35;;;;;;;;;;8270663;28;20054;-90
2023/07/03 23:52:37;;;;;;;21.27;9.75;;;;;;;;;;8258125;28;20073;-91
2023/07/03 23:56:40;;;;;;;19.23;9.85;;;;;;;;;;8258108;28;20154;-92
